Main page
METAR-TAF:

METAR-TAF

Airports :

Governor Francisco Gabrielli International Airport

Mendoza, Argentina

latitude: 32-50S, longitude: 068-47W, elevation: 705 m

Current weather observation

The report was made 29 minutes ago, at 13:00 UTC
Wind 8 kt from the South
Temperature 19°C
Humidity 68%
Pressure 1017 hPa
Visibility 10 km or more
Few clouds at a height of 4000 ft
Scattered clouds at a height of 4500 ft

METAR: SAME 201300Z 18008KT 9999 FEW040 SCT045 19/13 Q1017

Time: 10:29 (13:29 UTC)

Forecast

The report was made 2 hours and 29 minutes ago, at 11:00 UTC
Forecast valid from 20 at 12 UTC to 21 at 12 UTC
Wind 15 kt from the South/Southeast
Visibility 10 km or more
Scattered clouds at a height of 4000 ft
Probability 40% :
Temporary
from 20 at 12 UTC to 20 at 14 UTC
Wind 15 kt from the South/Southeast
Visibility: 7000 m
Broken clouds at a height of 4000 ft
mist

TAF: SAME 201100Z 2012/2112 16015KT 9999 SCT040 TX22/2020Z TN12/2110Z PROB40 TEMPO 2012/2014 16015KT 7000 BR BKN040

Weather observations and forecasts of more than 4000 airports (METAR and TAF reports).

The available stations are represented by yellow and red dots on the map.

Hover mouse over dot to see the name of the station.

Then click to see weather observations and forecasts.

To change the map : click on the green buttons with a black cross to zoom in, on the green button with a dash to zoom out, or on the green arrows for adjacent maps.


METAR-TAF: